createdAt,value
2019-04-14T00:01:14.902Z,30.30
2019-04-14T00:03:47.535Z,28.20
2019-04-14T00:06:18.089Z,34.38
2019-04-14T00:08:47.988Z,27.27
2019-04-14T00:11:19.010Z,30.20
2019-04-14T00:13:48.735Z,29.42
2019-04-14T00:16:18.499Z,28.40
2019-04-14T00:18:49.098Z,29.42
2019-04-14T00:21:19.390Z,31.42
2019-04-14T00:23:50.100Z,29.72
2019-04-14T00:26:31.782Z,29.80
2019-04-14T00:29:02.671Z,30.92
2019-04-14T00:31:32.956Z,31.13
2019-04-14T00:34:24.586Z,37.08
2019-04-14T00:37:09.935Z,41.10
2019-04-14T00:39:40.839Z,40.70
2019-04-14T00:42:19.143Z,38.05
2019-04-14T00:44:51.737Z,36.88
2019-04-14T00:47:26.807Z,39.27
2019-04-14T00:49:57.302Z,36.28
2019-04-14T00:52:27.685Z,35.43
2019-04-14T00:54:58.465Z,37.08
2019-04-14T00:57:29.025Z,38.55
2019-04-14T00:59:59.542Z,40.30
2019-04-14T01:02:29.726Z,36.83
2019-04-14T01:05:00.123Z,37.88
2019-04-14T01:07:30.505Z,37.70
2019-04-14T01:10:00.147Z,38.67
2019-04-14T01:12:30.003Z,36.98
2019-04-14T01:15:00.722Z,39.92
2019-04-14T01:17:30.910Z,39.53
2019-04-14T01:20:01.468Z,40.20
2019-04-14T01:22:31.503Z,41.05
2019-04-14T01:25:02.280Z,39.67
2019-04-14T01:27:32.089Z,38.65
2019-04-14T01:30:02.656Z,44.33
2019-04-14T01:32:32.687Z,42.60
2019-04-14T01:35:03.180Z,39.63
2019-04-14T01:37:33.335Z,42.50
2019-04-14T01:40:03.403Z,43.40
2019-04-14T01:42:33.400Z,41.45
2019-04-14T01:45:05.719Z,42.45
2019-04-14T01:47:35.667Z,42.93
2019-04-14T01:50:05.999Z,45.90
2019-04-14T01:52:40.609Z,42.15
2019-04-14T01:55:13.350Z,44.45
2019-04-14T01:58:03.315Z,42.40
2019-04-14T02:00:44.573Z,43.65
2019-04-14T02:03:14.913Z,43.73
2019-04-14T02:05:45.320Z,45.80
2019-04-14T02:08:15.505Z,45.78
2019-04-14T02:10:45.604Z,42.60
2019-04-14T02:13:15.722Z,43.68
2019-04-14T02:15:46.484Z,43.68
2019-04-14T02:18:16.419Z,45.33
2019-04-14T02:20:46.850Z,45.58
2019-04-14T02:23:17.109Z,47.53
2019-04-14T02:25:47.213Z,47.55
2019-04-14T02:28:17.750Z,47.13
2019-04-14T02:30:56.696Z,48.50
2019-04-14T02:33:50.934Z,46.05
2019-04-14T02:36:21.818Z,46.65
2019-04-14T02:46:28.574Z,47.55
2019-04-14T02:49:03.906Z,51.18
2019-04-14T02:51:29.530Z,48.23
2019-04-14T02:54:01.171Z,49.90
2019-04-14T02:56:34.390Z,53.00
2019-04-14T03:01:31.282Z,51.98
2019-04-14T03:03:58.456Z,54.73
2019-04-14T03:06:33.291Z,54.30
2019-04-14T03:09:12.976Z,54.98
2019-04-14T03:11:40.258Z,52.25
2019-04-14T03:14:11.581Z,48.35
2019-04-14T03:17:05.759Z,54.40
2019-04-14T03:19:48.241Z,53.25
2019-04-14T03:25:00.630Z,51.37
2019-04-14T03:27:48.210Z,59.05
2019-04-14T03:33:18.402Z,52.53
2019-04-14T03:40:37.328Z,49.08
2019-04-14T03:43:09.885Z,54.38
2019-04-14T03:45:45.112Z,55.08
2019-04-14T03:50:37.402Z,52.85
2019-04-14T03:53:19.175Z,51.90
2019-04-14T03:55:55.380Z,53.63
2019-04-14T03:58:20.608Z,50.15
2019-04-14T04:00:51.501Z,49.60
2019-04-14T04:03:21.816Z,52.57
2019-04-14T04:05:52.201Z,51.20
2019-04-14T04:08:22.383Z,52.05
2019-04-14T04:11:02.121Z,51.30
2019-04-14T04:13:32.346Z,52.67
2019-04-14T04:16:12.047Z,53.35
2019-04-14T04:18:52.840Z,49.27
2019-04-14T04:21:14.706Z,48.05
2019-04-14T04:23:49.207Z,47.90
2019-04-14T04:26:23.393Z,48.48
2019-04-14T04:29:04.763Z,47.50
2019-04-14T04:31:46.119Z,47.20
2019-04-14T04:34:25.079Z,47.90
2019-04-14T04:37:06.317Z,49.93
2019-04-14T04:39:49.598Z,49.93
2019-04-14T04:42:19.824Z,49.60
2019-04-14T04:44:50.906Z,52.38
2019-04-14T04:47:20.935Z,52.03
2019-04-14T04:49:51.184Z,52.27
2019-04-14T04:52:21.306Z,52.55
2019-04-14T04:54:51.647Z,52.62
2019-04-14T04:57:22.070Z,52.95
2019-04-14T04:59:51.770Z,49.85
2019-04-14T05:02:22.092Z,51.95
2019-04-14T05:04:52.653Z,48.08
2019-04-14T05:07:23.120Z,51.98
2019-04-14T05:10:13.194Z,52.88
2019-04-14T05:12:47.987Z,48.98
2019-04-14T05:15:31.288Z,49.80
2019-04-14T05:18:00.830Z,35.33
2019-04-14T05:20:31.354Z,31.60
2019-04-14T05:23:01.570Z,42.43
2019-04-14T05:25:31.823Z,36.40
2019-04-14T05:28:02.568Z,41.53
2019-04-14T05:30:32.891Z,37.10
2019-04-14T05:33:03.059Z,43.40
2019-04-14T05:35:33.399Z,44.40
2019-04-14T05:38:04.095Z,45.05
2019-04-14T05:40:34.321Z,46.98
2019-04-14T05:43:04.539Z,47.17
2019-04-14T05:45:35.092Z,49.93
2019-04-14T05:48:05.345Z,44.55
2019-04-14T05:50:35.714Z,44.98
2019-04-14T05:53:06.492Z,51.50
2019-04-14T05:55:37.273Z,46.92
2019-04-14T05:58:07.933Z,45.70
2019-04-14T06:00:39.408Z,48.80
2019-04-14T06:03:10.189Z,32.70
2019-04-14T06:05:40.359Z,45.60
2019-04-14T06:08:09.976Z,50.17
2019-04-14T06:10:39.561Z,35.03
2019-04-14T06:13:11.685Z,35.10
2019-04-14T06:15:40.548Z,44.40
2019-04-14T06:18:10.065Z,36.75
2019-04-14T06:20:39.656Z,56.90
2019-04-14T06:23:09.242Z,32.70
2019-04-14T06:25:38.773Z,42.98
2019-04-14T06:28:08.290Z,40.73
2019-04-14T06:30:39.442Z,45.03
2019-04-14T06:33:10.700Z,36.17
2019-04-14T06:35:41.866Z,34.30
2019-04-14T06:38:19.080Z,44.73
2019-04-14T06:40:50.224Z,52.50
2019-04-14T06:43:19.786Z,46.70
2019-04-14T06:45:49.379Z,39.20
2019-04-14T06:48:18.961Z,42.60
2019-04-14T06:50:48.582Z,30.23
2019-04-14T06:53:18.084Z,39.00
2019-04-14T06:55:47.779Z,42.35
2019-04-14T06:58:17.368Z,32.28
2019-04-14T07:00:46.953Z,41.80
2019-04-14T07:03:16.484Z,33.65
2019-04-14T07:05:46.360Z,41.40
2019-04-14T07:08:15.967Z,37.10
2019-04-14T07:10:45.565Z,40.25
2019-04-14T07:13:15.092Z,43.83
2019-04-14T07:15:45.021Z,43.38
2019-04-14T07:18:14.541Z,45.78
2019-04-14T07:20:44.082Z,38.00
2019-04-14T07:23:13.608Z,36.85
2019-04-14T07:25:43.209Z,34.25
2019-04-14T07:28:12.794Z,34.43
2019-04-14T07:30:46.565Z,31.95
2019-04-14T07:33:33.946Z,37.03
2019-04-14T07:36:14.235Z,34.98
2019-04-14T07:38:48.118Z,43.15
2019-04-14T07:41:23.539Z,34.83
2019-04-14T07:44:00.817Z,41.25
2019-04-14T07:46:34.894Z,36.73
2019-04-14T07:49:07.033Z,37.10
2019-04-14T07:54:23.186Z,42.33
2019-04-14T07:56:57.327Z,38.33
2019-04-14T07:59:34.107Z,42.27
2019-04-14T08:02:06.471Z,41.58
2019-04-14T08:04:37.708Z,43.87
2019-04-14T08:07:07.226Z,43.83
2019-04-14T08:09:36.869Z,35.68
2019-04-14T08:12:06.534Z,35.98
2019-04-14T08:14:36.066Z,43.55
2019-04-14T08:17:05.700Z,40.20
2019-04-14T08:19:35.242Z,42.58
2019-04-14T08:22:04.933Z,39.00
2019-04-14T08:24:34.519Z,37.90
2019-04-14T08:27:04.050Z,38.25
2019-04-14T08:29:33.619Z,41.63
2019-04-14T08:32:03.210Z,43.80
2019-04-14T08:34:32.726Z,56.50
2019-04-14T08:37:02.335Z,43.25
2019-04-14T08:39:31.846Z,33.45
2019-04-14T08:42:05.543Z,38.90
2019-04-14T08:44:39.605Z,44.05
2019-04-14T08:47:11.724Z,40.25
2019-04-14T08:49:42.971Z,29.63
2019-04-14T08:52:30.098Z,32.17
2019-04-14T08:55:01.356Z,32.35
2019-04-14T08:57:41.070Z,38.83
2019-04-14T09:00:15.567Z,46.85
2019-04-14T09:02:44.837Z,37.73
2019-04-14T09:05:31.474Z,46.50
2019-04-14T09:08:05.344Z,34.05
2019-04-14T09:10:48.565Z,40.65
2019-04-14T09:13:18.088Z,38.15
2019-04-14T09:15:47.594Z,38.10
2019-04-14T09:18:17.182Z,39.67
2019-04-14T09:20:52.456Z,40.60
2019-04-14T09:23:18.004Z,36.85
2019-04-14T09:25:48.147Z,51.95
2019-04-14T09:28:17.725Z,45.38
2019-04-14T09:30:47.277Z,61.45
2019-04-14T09:33:16.785Z,45.33
2019-04-14T09:35:46.317Z,36.65
2019-04-14T09:38:15.902Z,35.25
2019-04-14T09:40:45.434Z,43.35
2019-04-14T09:43:15.132Z,47.30
2019-04-14T09:45:44.664Z,41.53
2019-04-14T09:48:14.183Z,43.87
2019-04-14T09:50:45.116Z,43.25
2019-04-14T09:53:14.855Z,40.50
2019-04-14T09:55:44.347Z,36.48
2019-04-14T09:58:14.050Z,35.98
2019-04-14T10:00:43.628Z,33.13
2019-04-14T10:03:13.284Z,43.68
2019-04-14T10:05:43.001Z,50.12
2019-04-14T10:08:12.580Z,45.12
2019-04-14T10:10:42.260Z,40.65
2019-04-14T10:13:11.920Z,34.08
2019-04-14T10:15:41.594Z,45.78
2019-04-14T10:18:11.245Z,38.55
2019-04-14T10:20:40.912Z,41.53
2019-04-14T10:23:10.507Z,37.20
2019-04-14T10:25:40.020Z,31.23
2019-04-14T10:28:09.540Z,33.53
2019-04-14T10:30:39.126Z,32.67
2019-04-14T10:33:08.667Z,31.95
2019-04-14T10:35:39.182Z,34.20
2019-04-14T10:38:08.864Z,38.53
2019-04-14T10:40:38.510Z,38.02
2019-04-14T10:43:08.174Z,41.25
2019-04-14T10:45:37.710Z,37.00
2019-04-14T10:48:07.296Z,39.23
2019-04-14T10:50:37.576Z,40.45
2019-04-14T10:53:07.228Z,32.95
2019-04-14T10:55:36.885Z,33.23
2019-04-14T10:58:06.530Z,32.90
2019-04-14T11:00:36.372Z,31.95
2019-04-14T11:03:06.299Z,34.10
2019-04-14T11:05:43.344Z,41.77
2019-04-14T11:08:12.935Z,33.35
2019-04-14T11:10:42.445Z,32.13
2019-04-14T11:13:12.096Z,31.48
2019-04-14T11:15:41.681Z,32.67
2019-04-14T11:18:11.202Z,34.43
2019-04-14T11:20:40.809Z,34.70
2019-04-14T11:23:10.495Z,32.00
2019-04-14T11:25:40.022Z,33.90
2019-04-14T11:28:09.537Z,34.27
2019-04-14T11:30:39.334Z,34.13
2019-04-14T11:33:13.196Z,33.20
2019-04-14T11:35:51.475Z,31.97
2019-04-14T11:38:20.746Z,34.67
2019-04-14T11:40:51.911Z,35.03
2019-04-14T11:43:21.587Z,32.33
2019-04-14T11:45:51.234Z,34.75
2019-04-14T11:48:21.052Z,30.65
2019-04-14T11:50:50.673Z,30.88
2019-04-14T11:53:20.280Z,42.90
2019-04-14T11:55:49.803Z,47.08
2019-04-14T11:58:19.389Z,44.00
2019-04-14T12:01:06.479Z,42.38
2019-04-14T12:03:43.840Z,36.03
2019-04-14T12:06:30.984Z,32.88
2019-04-14T12:09:00.443Z,33.63
2019-04-14T12:11:30.066Z,36.42
2019-04-14T12:13:59.622Z,36.17
2019-04-14T12:16:29.219Z,34.88
2019-04-14T12:18:58.745Z,38.08
2019-04-14T12:21:28.375Z,38.28
2019-04-14T12:23:57.896Z,53.20
2019-04-14T12:26:27.443Z,39.70
2019-04-14T12:28:59.165Z,35.92
2019-04-14T12:31:28.898Z,38.98
2019-04-14T12:33:58.434Z,41.80
2019-04-14T12:36:28.112Z,36.40
2019-04-14T12:38:57.986Z,37.63
2019-04-14T12:41:41.526Z,35.92
2019-04-14T12:44:12.796Z,39.25
2019-04-14T12:46:44.275Z,42.30
2019-04-14T12:49:16.404Z,40.55
2019-04-14T12:54:26.710Z,39.58
2019-04-14T12:56:56.305Z,38.15
2019-04-14T12:59:26.604Z,37.00
2019-04-14T13:02:14.381Z,36.50
2019-04-14T13:04:43.972Z,46.80
2019-04-14T13:07:13.647Z,38.92
2019-04-14T13:09:43.316Z,36.08
2019-04-14T13:12:13.155Z,36.17
2019-04-14T13:14:43.179Z,34.50
2019-04-14T13:17:12.812Z,33.53
2019-04-14T13:19:42.432Z,35.45
2019-04-14T13:22:12.134Z,51.48
2019-04-14T13:24:41.762Z,37.30
2019-04-14T13:27:11.496Z,38.02
2019-04-14T13:29:41.194Z,38.53
2019-04-14T13:32:10.736Z,35.92
2019-04-14T13:34:40.328Z,40.63
2019-04-14T13:37:09.951Z,41.88
2019-04-14T13:39:39.536Z,53.85
2019-04-14T13:42:09.073Z,40.05
2019-04-14T13:44:38.641Z,42.17
2019-04-14T13:47:08.157Z,42.43
2019-04-14T13:49:37.759Z,41.45
2019-04-14T13:52:07.428Z,45.45
2019-04-14T13:54:37.060Z,43.58
2019-04-14T13:57:06.697Z,43.23
2019-04-14T13:59:36.290Z,40.45
2019-04-14T14:02:06.136Z,42.00
2019-04-14T14:04:35.709Z,45.15
2019-04-14T14:07:06.287Z,41.37
2019-04-14T14:09:36.013Z,37.13
2019-04-14T14:12:11.464Z,38.83
2019-04-14T14:14:58.632Z,37.40
2019-04-14T14:17:29.932Z,36.50
2019-04-14T14:20:03.874Z,38.88
2019-04-14T14:22:41.100Z,36.88
2019-04-14T14:25:15.145Z,48.48
2019-04-14T14:27:44.706Z,43.80
2019-04-14T14:30:16.176Z,38.98
2019-04-14T14:32:45.761Z,42.53
2019-04-14T14:35:15.449Z,62.23
2019-04-14T14:37:44.979Z,66.92
2019-04-14T14:40:14.796Z,45.20
2019-04-14T14:42:44.386Z,42.58
2019-04-14T14:45:21.373Z,46.18
2019-04-14T14:47:52.648Z,39.55
2019-04-14T14:50:24.721Z,43.67
2019-04-14T14:52:54.235Z,38.67
2019-04-14T14:55:23.781Z,46.08
2019-04-14T14:57:53.308Z,40.98
2019-04-14T15:00:24.740Z,33.58
2019-04-14T15:02:54.398Z,35.15
2019-04-14T15:05:23.966Z,36.08
2019-04-14T15:07:53.579Z,33.98
2019-04-14T15:10:23.235Z,37.80
2019-04-14T15:12:52.843Z,31.60
2019-04-14T15:15:22.435Z,34.80
2019-04-14T15:17:51.994Z,36.23
2019-04-14T15:20:21.662Z,85.15
2019-04-14T15:22:52.396Z,44.38
2019-04-14T15:25:22.257Z,36.83
2019-04-14T15:27:51.911Z,44.53
2019-04-14T15:30:22.507Z,40.92
2019-04-14T15:32:52.155Z,34.58
2019-04-14T15:35:21.733Z,32.75
2019-04-14T15:37:51.343Z,34.27
2019-04-14T15:40:21.013Z,53.40
2019-04-14T15:42:50.548Z,49.00
2019-04-14T15:45:20.133Z,55.83
2019-04-14T15:47:49.813Z,73.02
2019-04-14T15:50:19.441Z,100.80
2019-04-14T15:52:49.085Z,69.55
2019-04-14T15:55:19.564Z,50.43
2019-04-14T15:58:07.081Z,32.05
2019-04-14T16:00:45.388Z,29.67
2019-04-14T16:03:25.518Z,31.00
2019-04-14T16:06:12.587Z,42.35
2019-04-14T16:08:49.470Z,33.45
2019-04-14T16:11:33.777Z,34.73
2019-04-14T16:14:05.077Z,40.45
2019-04-14T16:16:36.381Z,38.58
2019-04-14T16:19:07.980Z,30.48
2019-04-14T16:21:37.588Z,34.78
2019-04-14T16:24:07.347Z,30.15
2019-04-14T16:26:50.896Z,61.10
2019-04-14T16:29:22.125Z,43.15
2019-04-14T16:32:02.218Z,46.07
2019-04-14T16:34:39.409Z,56.80
2019-04-14T16:37:09.027Z,49.83
2019-04-14T16:39:38.551Z,69.10
2019-04-14T16:42:08.219Z,37.15
2019-04-14T16:44:37.838Z,45.83
2019-04-14T16:47:07.505Z,30.43
2019-04-14T16:49:37.128Z,31.10
2019-04-14T16:52:09.203Z,36.85
2019-04-14T16:57:29.034Z,25.20
2019-04-14T16:59:58.638Z,29.37
2019-04-14T17:02:28.148Z,25.90
2019-04-14T17:04:57.678Z,24.75
2019-04-14T17:07:27.275Z,28.77
2019-04-14T17:09:56.822Z,24.92
2019-04-14T17:12:26.382Z,28.45
2019-04-14T17:15:03.380Z,29.02
2019-04-14T17:17:46.403Z,25.48
2019-04-14T17:20:20.552Z,27.42
2019-04-14T17:22:52.743Z,26.25
2019-04-14T17:28:04.249Z,28.57
2019-04-14T17:30:40.975Z,29.15
2019-04-14T17:33:10.377Z,31.97
2019-04-14T17:35:47.394Z,30.08
2019-04-14T17:38:21.313Z,30.80
2019-04-14T17:40:55.699Z,24.25
2019-04-14T17:43:29.541Z,28.57
2019-04-14T17:46:00.693Z,25.95
2019-04-14T17:48:47.818Z,29.37
2019-04-14T17:51:21.745Z,30.15
2019-04-14T17:53:52.890Z,27.60
2019-04-14T17:56:24.296Z,27.10
2019-04-14T17:59:08.345Z,27.95
2019-04-14T18:01:42.210Z,27.45
2019-04-14T18:04:13.373Z,27.65
2019-04-14T18:06:47.126Z,29.07
2019-04-14T18:09:21.130Z,28.75
2019-04-14T18:12:01.334Z,27.58
2019-04-14T18:14:41.055Z,31.45
2019-04-14T18:17:15.048Z,29.77
2019-04-14T18:19:54.942Z,27.50
2019-04-14T18:22:24.595Z,26.85
2019-04-14T18:24:54.110Z,27.80
2019-04-14T18:27:23.731Z,27.02
2019-04-14T18:30:11.487Z,30.43
2019-04-14T18:32:45.519Z,32.05
2019-04-14T18:35:31.794Z,29.42
2019-04-14T18:38:19.046Z,29.05
2019-04-14T18:40:58.792Z,26.60
2019-04-14T18:43:38.600Z,27.82
2019-04-14T18:46:09.820Z,28.95
2019-04-14T18:48:56.941Z,26.30
2019-04-14T18:51:28.159Z,29.75
2019-04-14T18:54:14.075Z,28.37
2019-04-14T18:57:01.424Z,30.52
2019-04-14T18:59:38.361Z,27.70
2019-04-14T19:02:09.076Z,26.48
2019-04-14T19:04:38.664Z,28.45
2019-04-14T19:07:08.212Z,28.12
2019-04-14T19:09:37.728Z,29.80
2019-04-14T19:12:19.145Z,27.30
2019-04-14T19:14:50.367Z,28.87
2019-04-14T19:17:21.606Z,28.40
2019-04-14T19:20:01.254Z,31.23
2019-04-14T19:22:24.216Z,31.40
2019-04-14T19:25:06.931Z,29.27
2019-04-14T19:27:25.141Z,29.92
2019-04-14T19:29:54.648Z,26.45
2019-04-14T19:32:24.438Z,28.10
2019-04-14T19:34:54.031Z,25.05
2019-04-14T19:37:23.542Z,32.98
2019-04-14T19:39:53.155Z,30.05
2019-04-14T19:42:22.664Z,26.70
2019-04-14T19:44:52.205Z,26.68
2019-04-14T19:47:21.791Z,31.20
2019-04-14T19:49:51.303Z,26.57
2019-04-14T19:52:20.927Z,25.05
2019-04-14T19:54:50.425Z,27.15
2019-04-14T19:57:19.955Z,30.77
2019-04-14T19:59:50.249Z,28.62
2019-04-14T20:02:19.895Z,27.48
2019-04-14T20:04:49.517Z,29.92
2019-04-14T20:07:19.050Z,28.30
2019-04-14T20:09:48.652Z,28.57
2019-04-14T20:12:18.798Z,28.55
2019-04-14T20:14:48.445Z,26.17
2019-04-14T20:17:25.407Z,32.48
2019-04-14T20:19:56.590Z,33.35
2019-04-14T20:22:27.817Z,38.13
2019-04-14T20:25:14.662Z,44.03
2019-04-14T20:27:46.470Z,47.13
2019-04-14T20:30:32.633Z,44.40
2019-04-14T20:33:02.281Z,46.60
2019-04-14T20:35:31.861Z,40.25
2019-04-14T20:38:01.535Z,38.58
2019-04-14T20:40:31.114Z,41.65
2019-04-14T20:43:00.784Z,35.65
2019-04-14T20:45:30.432Z,37.30
2019-04-14T20:48:00.000Z,41.70
2019-04-14T20:50:29.525Z,59.75
2019-04-14T20:52:59.060Z,63.05
2019-04-14T20:55:28.650Z,65.62
2019-04-14T20:57:58.301Z,74.00
2019-04-14T21:00:28.136Z,65.67
2019-04-14T21:03:15.348Z,70.80
2019-04-14T21:05:52.205Z,60.55
2019-04-14T21:08:27.327Z,52.03
2019-04-14T21:11:02.307Z,42.90
2019-04-14T21:13:33.527Z,41.42
2019-04-14T21:16:12.868Z,37.23
2019-04-14T21:18:43.143Z,40.40
2019-04-14T21:21:29.511Z,36.83
2019-04-14T21:24:00.682Z,38.48
2019-04-14T21:26:47.766Z,38.97
2019-04-14T21:29:27.399Z,35.03
2019-04-14T21:31:58.585Z,38.63
2019-04-14T21:34:47.903Z,40.73
2019-04-14T21:37:24.767Z,43.78
2019-04-14T21:39:56.011Z,45.10
2019-04-14T21:42:25.621Z,41.97
2019-04-14T21:44:55.313Z,39.03
2019-04-14T21:47:24.819Z,38.42
2019-04-14T21:49:54.348Z,35.25
2019-04-14T21:52:28.116Z,32.55
2019-04-14T21:54:57.710Z,31.33
2019-04-14T21:57:40.670Z,26.00
2019-04-14T22:00:29.802Z,28.92
2019-04-14T22:03:09.745Z,30.55
2019-04-14T22:05:41.067Z,29.30
2019-04-14T22:08:18.048Z,27.73
2019-04-14T22:10:49.357Z,31.75
2019-04-14T22:13:19.034Z,33.00
2019-04-14T22:15:48.536Z,26.33
2019-04-14T22:18:18.713Z,28.05
2019-04-14T22:20:48.365Z,29.75
2019-04-14T22:23:18.042Z,31.00
2019-04-14T22:25:47.692Z,31.82
2019-04-14T22:28:17.373Z,26.55
2019-04-14T22:30:47.035Z,32.23
2019-04-14T22:33:16.683Z,27.80
2019-04-14T22:35:46.356Z,27.73
2019-04-14T22:38:16.004Z,28.02
2019-04-14T22:40:45.643Z,29.48
2019-04-14T22:43:15.229Z,32.35
2019-04-14T22:45:44.842Z,33.08
2019-04-14T22:48:14.566Z,31.40
2019-04-14T22:50:44.142Z,29.63
2019-04-14T22:53:13.815Z,36.25
2019-04-14T22:55:43.407Z,45.85
2019-04-14T22:58:13.028Z,48.63
2019-04-14T23:00:46.990Z,37.75
2019-04-14T23:03:18.327Z,41.15
2019-04-14T23:05:49.481Z,32.15
2019-04-14T23:08:35.736Z,27.57
2019-04-14T23:11:15.831Z,24.70
2019-04-14T23:14:03.240Z,24.47
2019-04-14T23:16:40.001Z,24.40
2019-04-14T23:19:14.250Z,26.85
2019-04-14T23:21:45.955Z,25.45
2019-04-14T23:24:17.269Z,25.40
2019-04-14T23:26:52.942Z,31.93
2019-04-14T23:29:18.285Z,28.17
2019-04-14T23:31:47.886Z,25.15
2019-04-14T23:34:17.472Z,28.62
2019-04-14T23:36:47.146Z,31.87
2019-04-14T23:39:16.742Z,31.30
2019-04-14T23:41:46.357Z,30.88
2019-04-14T23:44:16.020Z,31.95
2019-04-14T23:46:45.603Z,32.53
2019-04-14T23:49:15.214Z,32.10
2019-04-14T23:51:44.796Z,31.05
2019-04-14T23:54:14.382Z,29.37
2019-04-14T23:56:43.902Z,31.25
2019-04-14T23:59:13.511Z,36.23
